Weather at Al Minhad Air Base

Public forecast

Using degrees Celsius for public forecast. Weather courtesy of forecast.io.

Closest aviation weather report (METAR) to Al Minhad Air Base

Closest report is Dubai International Airport, 13.6 nm (25.1 km) N.

2024/07/21 00:00 (retrieved 26 minutes ago)

OMDB 210000Z 34007KT 300V030 5000 HZ NSC 35/31 Q0994 BECMG 4000

Closest aviation forecast (TAF) to Al Minhad Air Base

Forecast is more than 6 hours old.

Closest forecast is Hamad International Airport, 204.8 nm (379.2 km) W.

2024/07/20 18:00 (retrieved 6 hours ago)

TAF OTHH 201700Z 2018/2124 36009KT CAVOK TEMPO 2018/2105 30008KT